Famagusta, Cyprus
Current Conditions -  °F | °C
As of 4:50 AM on Saturday 22 Nov 2014 (Local Time) from LCEN Reporting Station
Scattered Clouds Scattered Clouds  
Wind Chill: 12°   Ceiling: Unl
Heat Index: 12°   Visibility: 6mi
Dew Point:   Wind: 8mph
Humidity: 77%   Direction: 260°W
Pressure: 29.83"   Gusts: NA
Location:  35.33°N, 34.07°E
Report Text: LCEN 220150Z 26007KT 9999 SCT030TCU 12/08 Q1010 NOSIG
Loading
Personal Weather Stations






























Interactive Weather Map New forecast layout! Learn more

10-Day Weather Forecast

Advertisements
Track Severe Weather on mobile